createdAt,value
2017-02-15T00:01:07.351Z,929.4
2017-02-15T00:02:19.863Z,929.42
2017-02-15T00:03:33.564Z,929.41
2017-02-15T00:04:46.645Z,929.44
2017-02-15T00:06:00.337Z,929.5
2017-02-15T00:07:12.865Z,929.47
2017-02-15T00:08:26.577Z,929.51
2017-02-15T00:09:40.264Z,929.53
2017-02-15T00:10:53.378Z,929.53
2017-02-15T00:12:07.089Z,929.59
2017-02-15T00:13:20.799Z,929.63
2017-02-15T00:14:33.943Z,929.63
2017-02-15T00:15:47.081Z,929.66
2017-02-15T00:17:00.762Z,929.65
2017-02-15T00:18:13.896Z,929.64
2017-02-15T00:19:27.594Z,929.68
2017-02-15T00:20:41.308Z,929.71
2017-02-15T00:21:55.001Z,929.74
2017-02-15T00:23:08.089Z,929.72
2017-02-15T00:24:21.217Z,929.75
2017-02-15T00:25:34.929Z,929.8
2017-02-15T00:26:48.659Z,929.77
2017-02-15T00:28:01.782Z,929.72
2017-02-15T00:29:15.498Z,929.75
2017-02-15T00:30:29.210Z,929.74
2017-02-15T00:31:42.975Z,929.78
2017-02-15T00:32:56.733Z,929.75
2017-02-15T00:34:10.457Z,929.79
2017-02-15T00:35:24.188Z,929.77
2017-02-15T00:36:36.697Z,929.78
2017-02-15T00:37:50.412Z,929.79
2017-02-15T00:39:04.201Z,929.76
2017-02-15T00:40:17.900Z,929.78
2017-02-15T00:41:31.658Z,929.79
2017-02-15T00:42:45.371Z,929.76
2017-02-15T00:43:59.094Z,929.77
2017-02-15T00:45:12.834Z,929.73
2017-02-15T00:46:26.562Z,929.84
2017-02-15T00:47:40.342Z,929.82
2017-02-15T00:48:54.024Z,929.84
2017-02-15T00:50:07.734Z,929.84
2017-02-15T00:51:20.815Z,929.84
2017-02-15T00:52:34.540Z,929.87
2017-02-15T00:53:48.222Z,929.87
2017-02-15T00:55:01.973Z,929.88
2017-02-15T00:56:15.669Z,929.86
2017-02-15T00:57:29.344Z,929.87
2017-02-15T00:58:43.089Z,929.84
2017-02-15T00:59:56.870Z,929.8
2017-02-15T01:01:09.395Z,929.83
2017-02-15T01:02:23.096Z,929.82
2017-02-15T01:03:36.293Z,929.84
2017-02-15T01:04:49.996Z,929.83
2017-02-15T01:06:03.708Z,929.83
2017-02-15T01:07:17.407Z,929.81
2017-02-15T01:08:31.140Z,929.8
2017-02-15T01:09:44.921Z,929.8
2017-02-15T01:10:58.645Z,929.8
2017-02-15T01:12:11.777Z,929.82
2017-02-15T01:13:24.880Z,929.8
2017-02-15T01:14:38.570Z,929.78
2017-02-15T01:15:52.320Z,929.8
2017-02-15T01:17:06.056Z,929.78
2017-02-15T01:18:19.817Z,929.8
2017-02-15T01:19:32.333Z,929.82
2017-02-15T01:20:46.062Z,929.83
2017-02-15T01:21:59.826Z,929.81
2017-02-15T01:23:13.523Z,929.85
2017-02-15T01:24:27.216Z,929.84
2017-02-15T01:25:40.935Z,929.83
2017-02-15T01:26:54.082Z,929.82
2017-02-15T01:28:07.783Z,929.82
2017-02-15T01:29:19.709Z,929.83
2017-02-15T01:30:33.426Z,929.78
2017-02-15T01:31:47.162Z,929.81
2017-02-15T01:33:00.919Z,929.79
2017-02-15T01:34:14.648Z,929.75
2017-02-15T01:35:28.393Z,929.74
2017-02-15T01:36:42.088Z,929.74
2017-02-15T01:37:55.800Z,929.77
2017-02-15T01:39:09.490Z,929.81
2017-02-15T01:40:23.184Z,929.82
2017-02-15T01:41:36.916Z,929.79
2017-02-15T01:42:50.050Z,929.78
2017-02-15T01:44:03.751Z,929.81
2017-02-15T01:45:16.851Z,929.79
2017-02-15T01:46:29.956Z,929.77
2017-02-15T01:47:43.672Z,929.77
2017-02-15T01:48:57.415Z,929.79
2017-02-15T01:50:11.157Z,929.76
2017-02-15T01:51:24.861Z,929.77
2017-02-15T01:52:38.577Z,929.8
2017-02-15T01:53:52.275Z,929.81
2017-02-15T01:55:05.975Z,929.79
2017-02-15T01:56:19.705Z,929.77
2017-02-15T01:57:33.468Z,929.81
2017-02-15T01:58:46.580Z,929.83
2017-02-15T02:00:00.275Z,929.77
2017-02-15T02:01:13.441Z,929.78
2017-02-15T02:02:27.158Z,929.78
2017-02-15T02:03:40.276Z,929.78
2017-02-15T02:04:53.984Z,929.75
2017-02-15T02:06:07.681Z,929.76
2017-02-15T02:07:21.393Z,929.81
2017-02-15T02:08:34.490Z,929.81
2017-02-15T02:09:47.623Z,929.78
2017-02-15T02:11:01.296Z,929.77
2017-02-15T02:12:15.039Z,929.79
2017-02-15T02:13:28.923Z,929.8
2017-02-15T02:14:42.037Z,929.8
2017-02-15T02:15:55.782Z,929.8
2017-02-15T02:17:09.483Z,929.78
2017-02-15T02:18:23.215Z,929.79
2017-02-15T02:19:36.866Z,929.81
2017-02-15T02:20:50.559Z,929.75
2017-02-15T02:22:03.676Z,929.77
2017-02-15T02:23:16.836Z,929.77
2017-02-15T02:24:30.564Z,929.72
2017-02-15T02:25:44.324Z,929.74
2017-02-15T02:26:58.114Z,929.75
2017-02-15T02:28:11.859Z,929.76
2017-02-15T02:29:25.593Z,929.71
2017-02-15T02:30:39.294Z,929.74
2017-02-15T02:31:53.007Z,929.75
2017-02-15T02:33:06.760Z,929.78
2017-02-15T02:34:20.484Z,929.78
2017-02-15T02:35:34.170Z,929.73
2017-02-15T02:36:47.894Z,929.74
2017-02-15T02:38:01.629Z,929.74
2017-02-15T02:39:14.742Z,929.74
2017-02-15T02:40:28.445Z,929.76
2017-02-15T02:41:42.179Z,929.79
2017-02-15T02:42:55.900Z,929.75
2017-02-15T02:44:09.643Z,929.73
2017-02-15T02:45:22.741Z,929.75
2017-02-15T02:46:36.426Z,929.72
2017-02-15T02:47:50.197Z,929.71
2017-02-15T02:49:03.942Z,929.71
2017-02-15T02:50:17.664Z,929.71
2017-02-15T02:51:30.197Z,929.69
2017-02-15T02:52:43.934Z,929.68
2017-02-15T02:53:57.633Z,929.72
2017-02-15T02:55:11.376Z,929.7
2017-02-15T02:56:25.160Z,929.7
2017-02-15T02:57:38.890Z,929.71
2017-02-15T02:58:52.594Z,929.73
2017-02-15T03:00:06.325Z,929.68
2017-02-15T03:01:20.052Z,929.7
2017-02-15T03:02:33.162Z,929.7
2017-02-15T03:03:46.892Z,929.67
2017-02-15T03:05:00.683Z,929.63
2017-02-15T03:06:13.818Z,929.6
2017-02-15T03:07:26.919Z,929.64
2017-02-15T03:08:40.629Z,929.63
2017-02-15T03:09:54.330Z,929.6
2017-02-15T03:11:08.046Z,929.6
2017-02-15T03:12:21.743Z,929.66
2017-02-15T03:13:34.835Z,929.59
2017-02-15T03:14:48.585Z,929.62
2017-02-15T03:16:02.366Z,929.6
2017-02-15T03:17:15.458Z,929.59
2017-02-15T03:18:28.535Z,929.58
2017-02-15T03:19:41.641Z,929.59
2017-02-15T03:20:55.348Z,929.58
2017-02-15T03:22:09.064Z,929.59
2017-02-15T03:23:22.212Z,929.57
2017-02-15T03:24:35.949Z,929.6
2017-02-15T03:25:49.704Z,929.55
2017-02-15T03:27:02.797Z,929.56
2017-02-15T03:28:16.512Z,929.58
2017-02-15T03:29:30.238Z,929.53
2017-02-15T03:30:43.948Z,929.52
2017-02-15T03:31:57.639Z,929.5
2017-02-15T03:33:11.398Z,929.46
2017-02-15T03:34:25.103Z,929.45
2017-02-15T03:35:38.231Z,929.44
2017-02-15T03:36:51.955Z,929.44
2017-02-15T03:38:05.636Z,929.47
2017-02-15T03:39:18.780Z,929.44
2017-02-15T03:40:32.511Z,929.47
2017-02-15T03:41:46.249Z,929.47
2017-02-15T03:42:59.938Z,929.43
2017-02-15T03:44:13.635Z,929.43
2017-02-15T03:45:27.326Z,929.4
2017-02-15T03:46:41.033Z,929.37
2017-02-15T03:47:54.808Z,929.36
2017-02-15T03:49:08.563Z,929.4
2017-02-15T03:50:22.287Z,929.39
2017-02-15T03:51:35.959Z,929.4
2017-02-15T03:52:49.679Z,929.38
2017-02-15T03:54:03.455Z,929.44
2017-02-15T03:55:16.570Z,929.4
2017-02-15T03:56:30.305Z,929.35
2017-02-15T03:57:44.015Z,929.35
2017-02-15T03:58:57.719Z,929.37
2017-02-15T04:00:11.434Z,929.32
2017-02-15T04:01:24.549Z,929.31
2017-02-15T04:02:38.259Z,929.36
2017-02-15T04:03:52.006Z,929.32
2017-02-15T04:05:05.789Z,929.33
2017-02-15T04:06:19.515Z,929.36
2017-02-15T04:07:33.276Z,929.39
2017-02-15T04:08:47.041Z,929.38
2017-02-15T04:10:00.705Z,929.39
2017-02-15T04:11:14.371Z,929.39
2017-02-15T04:12:27.523Z,929.35
2017-02-15T04:13:41.279Z,929.36
2017-02-15T04:14:55.004Z,929.33
2017-02-15T04:16:08.720Z,929.3
2017-02-15T04:17:21.838Z,929.35
2017-02-15T04:18:35.604Z,929.34
2017-02-15T04:19:49.273Z,929.34
2017-02-15T04:21:02.975Z,929.33
2017-02-15T04:22:16.090Z,929.33
2017-02-15T04:23:29.789Z,929.27
2017-02-15T04:24:43.491Z,929.31
2017-02-15T04:25:57.218Z,929.27
2017-02-15T04:27:10.982Z,929.28
2017-02-15T04:28:24.708Z,929.3
2017-02-15T04:29:38.468Z,929.28
2017-02-15T04:30:52.140Z,929.22
2017-02-15T04:32:05.866Z,929.19
2017-02-15T04:33:19.000Z,929.22
2017-02-15T04:34:32.714Z,929.21
2017-02-15T04:35:46.459Z,929.18
2017-02-15T04:37:00.206Z,929.18
2017-02-15T04:38:13.921Z,929.15
2017-02-15T04:39:27.655Z,929.15
2017-02-15T04:40:41.385Z,929.18
2017-02-15T04:41:55.101Z,929.17
2017-02-15T04:43:08.206Z,929.11
2017-02-15T04:44:21.948Z,929.09
2017-02-15T04:45:35.644Z,929.1
2017-02-15T04:46:49.339Z,929.11
2017-02-15T04:48:03.065Z,929.1
2017-02-15T04:49:16.791Z,929.17
2017-02-15T04:50:30.524Z,929.19
2017-02-15T04:51:43.690Z,929.13
2017-02-15T04:52:57.436Z,929.12
2017-02-15T04:54:11.179Z,929.16
2017-02-15T04:55:24.868Z,929.18
2017-02-15T04:56:38.604Z,929.13
2017-02-15T04:57:52.355Z,929.12
2017-02-15T04:59:06.065Z,929.1
2017-02-15T05:00:19.763Z,929.13
2017-02-15T05:01:33.481Z,929.1
2017-02-15T05:02:47.207Z,929.13
2017-02-15T05:04:00.914Z,929.16
2017-02-15T05:05:14.665Z,929.15
2017-02-15T05:06:27.781Z,929.17
2017-02-15T05:07:41.512Z,929.18
2017-02-15T05:08:55.210Z,929.18
2017-02-15T05:10:08.947Z,929.21
2017-02-15T05:11:22.664Z,929.2
2017-02-15T05:12:36.369Z,929.18
2017-02-15T05:13:50.093Z,929.15
2017-02-15T05:15:03.855Z,929.15
2017-02-15T05:16:17.021Z,929.16
2017-02-15T05:17:30.186Z,929.15
2017-02-15T05:18:43.331Z,929.11
2017-02-15T05:19:57.103Z,929.11
2017-02-15T05:21:09.657Z,929.12
2017-02-15T05:22:22.754Z,929.11
2017-02-15T05:23:36.542Z,929.12
2017-02-15T05:24:50.247Z,929.14
2017-02-15T05:26:03.970Z,929.1
2017-02-15T05:27:17.093Z,929.13
2017-02-15T05:28:30.272Z,929.1
2017-02-15T05:29:43.984Z,929.1
2017-02-15T05:30:57.111Z,929.09
2017-02-15T05:32:10.924Z,929.13
2017-02-15T05:33:24.631Z,929.12
2017-02-15T05:34:38.327Z,929.11
2017-02-15T05:35:52.057Z,929.14
2017-02-15T05:37:05.815Z,929.11
2017-02-15T05:38:19.553Z,929.06
2017-02-15T05:39:33.253Z,929.06
2017-02-15T05:40:46.390Z,929.09
2017-02-15T05:42:00.158Z,929.11
2017-02-15T05:43:13.282Z,929.11
2017-02-15T05:44:27.004Z,929.09
2017-02-15T05:45:40.150Z,929.12
2017-02-15T05:46:53.838Z,929.14
2017-02-15T05:48:07.569Z,929.13
2017-02-15T05:49:21.272Z,929.13
2017-02-15T05:50:34.956Z,929.11
2017-02-15T05:51:48.693Z,929.11
2017-02-15T05:53:02.412Z,929.12
2017-02-15T05:54:16.109Z,929.14
2017-02-15T05:55:29.872Z,929.09
2017-02-15T05:56:43.606Z,929.07
2017-02-15T05:57:57.382Z,929.11
2017-02-15T05:59:11.116Z,929.11
2017-02-15T06:00:24.815Z,929.15
2017-02-15T06:01:37.968Z,929.2
2017-02-15T06:02:51.732Z,929.17
2017-02-15T06:04:05.425Z,929.21
2017-02-15T06:05:19.191Z,929.18
2017-02-15T06:06:32.889Z,929.21
2017-02-15T06:07:46.585Z,929.2
2017-02-15T06:09:00.288Z,929.15
2017-02-15T06:10:13.446Z,929.14
2017-02-15T06:11:26.565Z,929.18
2017-02-15T06:12:40.320Z,929.15
2017-02-15T06:13:54.073Z,929.11
2017-02-15T06:15:07.247Z,929.16
2017-02-15T06:16:19.799Z,929.12
2017-02-15T06:17:33.487Z,929.11
2017-02-15T06:18:47.195Z,929.11
2017-02-15T06:20:00.887Z,929.15
2017-02-15T06:21:13.422Z,929.14
2017-02-15T06:22:27.186Z,929.16
2017-02-15T06:23:40.893Z,929.12
2017-02-15T06:24:54.035Z,929.11
2017-02-15T06:26:07.716Z,929.13
2017-02-15T06:27:21.430Z,929.15
2017-02-15T06:28:35.207Z,929.12
2017-02-15T06:29:47.698Z,929.1
2017-02-15T06:31:01.419Z,929.13
2017-02-15T06:32:15.138Z,929.14
2017-02-15T06:33:28.829Z,929.16
2017-02-15T06:34:42.003Z,929.17
2017-02-15T06:35:55.870Z,929.2
2017-02-15T06:37:08.418Z,929.18
2017-02-15T06:38:21.595Z,929.16
2017-02-15T06:39:35.327Z,929.16
2017-02-15T06:40:48.420Z,929.15
2017-02-15T06:42:02.136Z,929.19
2017-02-15T06:43:14.641Z,929.18
2017-02-15T06:44:28.376Z,929.19
2017-02-15T06:45:42.113Z,929.19
2017-02-15T06:46:58.759Z,929.22
2017-02-15T06:48:12.497Z,929.25
2017-02-15T06:49:26.191Z,929.21
2017-02-15T06:50:40.425Z,929.2
2017-02-15T06:51:54.172Z,929.17
2017-02-15T06:53:08.634Z,929.24
2017-02-15T06:54:22.377Z,929.22
2017-02-15T06:55:36.086Z,929.22
2017-02-15T06:56:49.855Z,929.27
2017-02-15T06:58:04.300Z,929.22
2017-02-15T06:59:18.715Z,929.23
2017-02-15T07:00:32.475Z,929.2
2017-02-15T07:01:46.877Z,929.24
2017-02-15T07:03:00.601Z,929.22
2017-02-15T07:04:14.960Z,929.24
2017-02-15T07:05:28.739Z,929.2
2017-02-15T07:06:42.515Z,929.25
2017-02-15T07:07:56.941Z,929.27
2017-02-15T07:09:10.085Z,929.24
2017-02-15T07:10:24.531Z,929.32
2017-02-15T07:11:38.906Z,929.27
2017-02-15T07:12:53.298Z,929.27
2017-02-15T07:14:07.675Z,929.23
2017-02-15T07:15:22.079Z,929.23
2017-02-15T07:16:36.468Z,929.24
2017-02-15T07:17:50.834Z,929.27
2017-02-15T07:19:05.249Z,929.27
2017-02-15T07:20:19.629Z,929.24
2017-02-15T07:21:34.044Z,929.26
2017-02-15T07:22:48.416Z,929.28
2017-02-15T07:24:02.824Z,929.32
2017-02-15T07:25:16.539Z,929.3
2017-02-15T07:26:30.914Z,929.3
2017-02-15T07:27:45.340Z,929.31
2017-02-15T07:28:59.731Z,929.32
2017-02-15T07:30:14.159Z,929.34
2017-02-15T07:31:27.265Z,929.33
2017-02-15T07:32:41.618Z,929.37
2017-02-15T07:33:56.032Z,929.31
2017-02-15T07:35:10.409Z,929.34
2017-02-15T07:36:23.530Z,929.36
2017-02-15T07:37:37.937Z,929.37
2017-02-15T07:38:51.676Z,929.35
2017-02-15T07:40:06.083Z,929.32
2017-02-15T07:41:20.469Z,929.32
2017-02-15T07:42:34.900Z,929.35
2017-02-15T07:43:48.680Z,929.38
2017-02-15T07:45:03.060Z,929.39
2017-02-15T07:46:17.483Z,929.4
2017-02-15T07:47:31.912Z,929.38
2017-02-15T07:48:45.701Z,929.4
2017-02-15T07:50:00.083Z,929.35
2017-02-15T07:51:13.871Z,929.37
2017-02-15T07:52:28.226Z,929.37
2017-02-15T07:53:42.009Z,929.37
2017-02-15T07:54:55.821Z,929.43
2017-02-15T07:56:10.222Z,929.43
2017-02-15T07:57:23.400Z,929.43
2017-02-15T07:58:37.815Z,929.41
2017-02-15T07:59:51.577Z,929.41
2017-02-15T08:01:06.005Z,929.45
2017-02-15T08:02:20.416Z,929.46
2017-02-15T08:03:34.825Z,929.45
2017-02-15T08:04:49.227Z,929.5
2017-02-15T08:06:03.001Z,929.5
2017-02-15T08:07:16.798Z,929.51
2017-02-15T08:08:30.587Z,929.53
2017-02-15T08:09:44.985Z,929.49
2017-02-15T08:10:59.423Z,929.48
2017-02-15T08:12:13.179Z,929.54
2017-02-15T08:13:27.580Z,929.52
2017-02-15T08:14:41.971Z,929.55
2017-02-15T08:15:56.374Z,929.55
2017-02-15T08:17:10.139Z,929.59
2017-02-15T08:18:24.519Z,929.6
2017-02-15T08:19:38.896Z,929.63
2017-02-15T08:20:53.294Z,929.65
2017-02-15T08:22:07.691Z,929.63
2017-02-15T08:23:22.149Z,929.69
2017-02-15T08:24:36.525Z,929.7
2017-02-15T08:25:50.909Z,929.66
2017-02-15T08:27:05.327Z,929.68
2017-02-15T08:28:19.100Z,929.67
2017-02-15T08:29:33.501Z,929.67
2017-02-15T08:30:47.904Z,929.68
2017-02-15T08:32:02.342Z,929.68
2017-02-15T08:33:16.796Z,929.69
2017-02-15T08:34:29.916Z,929.72
2017-02-15T08:35:44.353Z,929.73
2017-02-15T08:36:58.810Z,929.76
2017-02-15T08:38:13.219Z,929.81
2017-02-15T08:39:27.649Z,929.8
2017-02-15T08:40:42.103Z,929.78
2017-02-15T08:41:56.525Z,929.85
2017-02-15T08:43:10.317Z,929.85
2017-02-15T08:44:24.085Z,929.85
2017-02-15T08:45:37.929Z,929.85
2017-02-15T08:46:52.320Z,929.84
2017-02-15T08:48:06.756Z,929.87
2017-02-15T08:49:21.286Z,929.88
2017-02-15T08:50:34.388Z,929.86
2017-02-15T08:51:48.841Z,929.92
2017-02-15T08:53:03.285Z,929.94
2017-02-15T08:54:17.712Z,929.97
2017-02-15T08:55:32.197Z,929.94
2017-02-15T08:56:46.595Z,929.98
2017-02-15T08:58:01.018Z,929.95
2017-02-15T08:59:14.811Z,929.97
2017-02-15T09:00:29.240Z,929.93
2017-02-15T09:01:43.690Z,929.99
2017-02-15T09:02:56.803Z,930.02
2017-02-15T09:04:11.211Z,930
2017-02-15T09:05:25.635Z,930.01
2017-02-15T09:06:40.014Z,930.01
2017-02-15T09:07:54.453Z,930.08
2017-02-15T09:09:08.949Z,930.07
2017-02-15T09:10:23.394Z,930.11
2017-02-15T09:11:37.184Z,930.16
2017-02-15T09:12:51.620Z,930.19
2017-02-15T09:14:06.070Z,930.23
2017-02-15T09:15:19.958Z,930.19
2017-02-15T09:16:34.400Z,930.25
2017-02-15T09:17:48.788Z,930.26
2017-02-15T09:19:03.293Z,930.31
2017-02-15T09:20:17.774Z,930.35
2017-02-15T09:21:31.540Z,930.36
2017-02-15T09:22:45.970Z,930.36
2017-02-15T09:23:59.800Z,930.4
2017-02-15T09:25:13.659Z,930.41
2017-02-15T09:26:27.487Z,930.42
2017-02-15T09:27:41.904Z,930.45
2017-02-15T09:28:56.386Z,930.45
2017-02-15T09:30:10.814Z,930.43
2017-02-15T09:31:24.748Z,930.52
2017-02-15T09:32:39.243Z,930.49
2017-02-15T09:33:53.703Z,930.54
2017-02-15T09:35:07.557Z,930.56
2017-02-15T09:36:22.045Z,930.55
2017-02-15T09:37:36.588Z,930.57
2017-02-15T09:38:51.024Z,930.64
2017-02-15T09:40:05.497Z,930.62
2017-02-15T09:41:20.039Z,930.61
2017-02-15T09:42:33.898Z,930.64
2017-02-15T09:43:48.360Z,930.65
2017-02-15T09:45:02.867Z,930.69
2017-02-15T09:46:17.444Z,930.65
2017-02-15T09:47:30.721Z,930.7
2017-02-15T09:48:45.219Z,930.7
2017-02-15T09:49:58.352Z,930.75
2017-02-15T09:51:12.356Z,930.77
2017-02-15T09:52:25.552Z,930.76
2017-02-15T09:53:39.979Z,930.81
2017-02-15T09:54:54.458Z,930.79
2017-02-15T09:56:08.282Z,930.78
2017-02-15T09:57:22.195Z,930.81
2017-02-15T09:58:36.604Z,930.84
2017-02-15T09:59:51.026Z,930.83
2017-02-15T10:01:04.800Z,930.9
2017-02-15T10:02:18.620Z,930.88
2017-02-15T10:03:33.101Z,930.92
2017-02-15T10:04:47.660Z,930.93
2017-02-15T10:06:02.093Z,930.9
2017-02-15T10:07:15.986Z,930.91
2017-02-15T10:08:30.516Z,931.01
2017-02-15T10:09:44.325Z,930.97
2017-02-15T10:10:58.824Z,931
2017-02-15T10:12:12.636Z,931.01
2017-02-15T10:13:26.629Z,931.01
2017-02-15T10:14:41.162Z,931
2017-02-15T10:15:55.065Z,931
2017-02-15T10:17:09.123Z,931.03
2017-02-15T10:18:22.474Z,931.02
2017-02-15T10:19:36.956Z,931.02
2017-02-15T10:20:51.576Z,931.05
2017-02-15T10:22:06.108Z,931.07
2017-02-15T10:23:20.007Z,931.09
2017-02-15T10:24:34.481Z,931.09
2017-02-15T10:25:49.027Z,931.12
2017-02-15T10:27:03.633Z,931.09
2017-02-15T10:28:18.237Z,931.14
2017-02-15T10:29:32.793Z,931.12
2017-02-15T10:30:47.359Z,931.15
2017-02-15T10:32:01.355Z,931.1
2017-02-15T10:33:15.908Z,931.2
2017-02-15T10:34:29.219Z,931.19
2017-02-15T10:35:43.757Z,931.18
2017-02-15T10:36:58.206Z,931.16
2017-02-15T10:38:12.920Z,931.16
2017-02-15T10:39:26.859Z,931.16
2017-02-15T10:40:40.666Z,931.17
2017-02-15T10:41:55.268Z,931.17
2017-02-15T10:43:09.225Z,931.21
2017-02-15T10:44:23.214Z,931.24
2017-02-15T10:45:37.851Z,931.24
2017-02-15T10:46:52.496Z,931.23
2017-02-15T10:48:07.168Z,931.22
2017-02-15T10:49:21.781Z,931.25
2017-02-15T10:50:35.618Z,931.24
2017-02-15T10:51:49.464Z,931.25
2017-02-15T10:53:04.095Z,931.28
2017-02-15T10:54:18.120Z,931.27
2017-02-15T10:55:32.837Z,931.27
2017-02-15T10:56:47.399Z,931.27
2017-02-15T10:58:02.114Z,931.3
2017-02-15T10:59:15.436Z,931.34
2017-02-15T11:00:29.374Z,931.37
2017-02-15T11:01:43.878Z,931.41
2017-02-15T11:02:58.518Z,931.39
2017-02-15T11:04:13.167Z,931.45
2017-02-15T11:05:27.966Z,931.42
2017-02-15T11:06:41.998Z,931.43
2017-02-15T11:07:56.548Z,931.43
2017-02-15T11:09:11.093Z,931.41
2017-02-15T11:10:25.610Z,931.38
2017-02-15T11:11:40.135Z,931.43
2017-02-15T11:12:54.196Z,931.47
2017-02-15T11:14:08.314Z,931.5
2017-02-15T11:15:22.909Z,931.5
2017-02-15T11:16:37.597Z,931.49
2017-02-15T11:17:52.272Z,931.51
2017-02-15T11:19:06.842Z,931.51
2017-02-15T11:20:21.650Z,931.51
2017-02-15T11:21:36.407Z,931.51
2017-02-15T11:22:51.027Z,931.51
2017-02-15T11:24:05.070Z,931.49
2017-02-15T11:25:19.709Z,931.51
2017-02-15T11:26:34.456Z,931.47
2017-02-15T11:27:49.043Z,931.55
2017-02-15T11:29:03.491Z,931.54
2017-02-15T11:30:16.728Z,931.5
2017-02-15T11:31:31.594Z,931.53
2017-02-15T11:32:46.292Z,931.51
2017-02-15T11:34:00.764Z,931.49
2017-02-15T11:35:15.371Z,931.48
2017-02-15T11:36:29.420Z,931.5
2017-02-15T11:37:43.458Z,931.52
2017-02-15T11:38:58.061Z,931.55
2017-02-15T11:40:12.698Z,931.61
2017-02-15T11:41:27.271Z,931.54
2017-02-15T11:42:41.789Z,931.59
2017-02-15T11:43:56.377Z,931.58
2017-02-15T11:45:10.377Z,931.62
2017-02-15T11:46:25.012Z,931.63
2017-02-15T11:47:39.599Z,931.66
2017-02-15T11:48:54.228Z,931.69
2017-02-15T11:50:08.042Z,931.67
2017-02-15T11:51:22.551Z,931.76
2017-02-15T11:52:37.280Z,931.77
2017-02-15T11:54:04.615Z,931.73
2017-02-15T11:55:18.712Z,931.77
2017-02-15T11:56:33.272Z,931.78
2017-02-15T11:57:49.589Z,931.76
2017-02-15T11:59:04.193Z,931.77
2017-02-15T12:00:17.584Z,931.76
2017-02-15T12:01:32.162Z,931.83
2017-02-15T12:02:46.779Z,931.81
2017-02-15T12:04:01.454Z,931.82
2017-02-15T12:05:15.367Z,931.87
2017-02-15T12:06:36.508Z,931.83
2017-02-15T12:07:52.355Z,931.84
2017-02-15T12:09:07.073Z,931.89
2017-02-15T12:10:21.144Z,931.84
2017-02-15T12:11:35.878Z,931.81
2017-02-15T12:12:50.495Z,931.81
2017-02-15T12:14:04.919Z,931.84
2017-02-15T12:15:18.809Z,931.79
2017-02-15T12:16:33.652Z,931.81
2017-02-15T12:17:48.397Z,931.83
2017-02-15T12:19:03.105Z,931.84
2017-02-15T12:20:17.669Z,931.86
2017-02-15T12:21:32.309Z,931.84
2017-02-15T12:22:47.169Z,931.83
2017-02-15T12:24:01.757Z,931.79
2017-02-15T12:25:16.555Z,931.82
2017-02-15T12:26:31.094Z,931.83
2017-02-15T12:27:45.897Z,931.79
2017-02-15T12:29:00.430Z,931.84
2017-02-15T12:30:13.186Z,931.88
2017-02-15T12:31:27.663Z,931.85
2017-02-15T12:32:42.179Z,931.87
2017-02-15T12:33:56.667Z,931.82
2017-02-15T12:35:11.596Z,931.77
2017-02-15T12:36:25.691Z,931.83
2017-02-15T12:37:39.675Z,932.03
2017-02-15T12:38:54.247Z,931.81
2017-02-15T12:40:08.973Z,931.81
2017-02-15T12:41:23.013Z,931.76
2017-02-15T12:42:37.658Z,931.78
2017-02-15T12:43:52.215Z,931.81
2017-02-15T12:45:06.072Z,931.86
2017-02-15T12:46:20.741Z,931.85
2017-02-15T12:47:35.584Z,931.84
2017-02-15T12:48:50.283Z,931.81
2017-02-15T12:50:06.700Z,931.87
2017-02-15T12:51:21.239Z,931.84
2017-02-15T12:52:35.952Z,931.83
2017-02-15T12:53:50.385Z,931.86
2017-02-15T12:55:04.956Z,931.9
2017-02-15T12:56:19.844Z,931.89
2017-02-15T12:57:33.025Z,931.86
2017-02-15T12:58:47.712Z,931.85
2017-02-15T13:00:03.884Z,931.9
2017-02-15T13:01:17.866Z,931.83
2017-02-15T13:02:32.738Z,931.87
2017-02-15T13:03:47.650Z,931.84
2017-02-15T13:05:01.535Z,931.94
2017-02-15T13:06:15.870Z,931.91
2017-02-15T13:07:30.432Z,931.89
2017-02-15T13:08:45.086Z,931.88
2017-02-15T13:09:59.934Z,931.87
2017-02-15T13:11:13.926Z,931.84
2017-02-15T13:12:28.291Z,931.8
2017-02-15T13:13:42.838Z,931.8
2017-02-15T13:14:57.964Z,931.83
2017-02-15T13:16:11.902Z,931.79
2017-02-15T13:17:26.503Z,931.8
2017-02-15T13:18:39.691Z,931.78
2017-02-15T13:19:54.415Z,931.79
2017-02-15T13:21:08.949Z,931.77
2017-02-15T13:22:23.197Z,931.77
2017-02-15T13:23:37.977Z,931.79
2017-02-15T13:24:52.552Z,931.71
2017-02-15T13:26:07.224Z,931.72
2017-02-15T13:27:21.306Z,931.71
2017-02-15T13:28:35.975Z,931.72
2017-02-15T13:29:50.754Z,931.75
2017-02-15T13:31:05.316Z,931.76
2017-02-15T13:32:20.064Z,931.73
2017-02-15T13:33:34.760Z,931.74
2017-02-15T13:34:49.649Z,931.71
2017-02-15T13:36:04.212Z,931.71
2017-02-15T13:37:18.107Z,931.68
2017-02-15T13:38:32.862Z,931.71
2017-02-15T13:39:46.941Z,931.69
2017-02-15T13:41:01.484Z,931.69
2017-02-15T13:42:15.529Z,931.71
2017-02-15T13:43:30.460Z,931.69
2017-02-15T13:44:45.173Z,931.73
2017-02-15T13:45:59.786Z,931.67
2017-02-15T13:47:13.669Z,931.72
2017-02-15T13:48:27.701Z,931.73
2017-02-15T13:49:41.644Z,931.75
2017-02-15T13:50:56.343Z,931.77
2017-02-15T13:52:12.559Z,931.73
2017-02-15T13:53:27.087Z,931.77
2017-02-15T13:54:41.699Z,931.72
2017-02-15T13:55:55.594Z,931.7
2017-02-15T13:57:08.871Z,931.72
2017-02-15T13:58:25.059Z,931.65
2017-02-15T13:59:39.849Z,931.62
2017-02-15T14:00:53.824Z,931.58
2017-02-15T14:02:08.532Z,931.6
2017-02-15T14:03:23.517Z,931.59
2017-02-15T14:04:37.819Z,931.57
2017-02-15T14:05:52.246Z,931.58
2017-02-15T14:07:06.972Z,931.57
2017-02-15T14:08:21.173Z,931.58
2017-02-15T14:09:34.424Z,931.55
2017-02-15T14:10:48.321Z,931.56
2017-02-15T14:12:04.626Z,931.52
2017-02-15T14:13:19.917Z,931.48
2017-02-15T14:14:34.432Z,931.45
2017-02-15T14:15:49.700Z,931.47
2017-02-15T14:17:05.449Z,931.47
2017-02-15T14:18:19.896Z,931.46
2017-02-15T14:19:34.383Z,931.45
2017-02-15T14:20:46.988Z,931.41
2017-02-15T14:22:01.779Z,931.36
2017-02-15T14:23:15.906Z,931.4
2017-02-15T14:24:30.625Z,931.34
2017-02-15T14:25:45.174Z,931.32
2017-02-15T14:26:58.748Z,931.31
2017-02-15T14:28:12.933Z,931.29
2017-02-15T14:29:27.515Z,931.31
2017-02-15T14:30:41.500Z,931.27
2017-02-15T14:31:55.628Z,931.24
2017-02-15T14:33:10.320Z,931.24
2017-02-15T14:34:24.888Z,931.29
2017-02-15T14:35:39.833Z,931.24
2017-02-15T14:36:56.038Z,931.2
2017-02-15T14:38:10.022Z,931.17
2017-02-15T14:39:23.976Z,931.18
2017-02-15T14:40:38.587Z,931.09
2017-02-15T14:41:52.527Z,931.11
2017-02-15T14:43:08.077Z,931.1
2017-02-15T14:44:20.764Z,931.09
2017-02-15T14:45:34.768Z,931.05
2017-02-15T14:46:50.971Z,931.08
2017-02-15T14:48:05.192Z,931.05
2017-02-15T14:49:19.127Z,931.08
2017-02-15T14:50:33.316Z,931.08
2017-02-15T14:51:47.371Z,931.05
2017-02-15T14:53:02.064Z,931.02
2017-02-15T14:54:16.760Z,931.05
2017-02-15T14:55:30.794Z,931.01
2017-02-15T14:56:44.594Z,930.98
2017-02-15T14:57:58.844Z,931
2017-02-15T14:59:14.424Z,931
2017-02-15T15:00:28.235Z,930.97
2017-02-15T15:01:42.857Z,930.99
2017-02-15T15:02:56.850Z,930.96
2017-02-15T15:04:11.623Z,930.92
2017-02-15T15:05:28.319Z,930.92
2017-02-15T15:06:42.890Z,930.82
2017-02-15T15:07:57.864Z,930.78
2017-02-15T15:09:12.820Z,930.81
2017-02-15T15:10:26.808Z,930.79
2017-02-15T15:11:41.479Z,930.83
2017-02-15T15:12:55.496Z,930.75
2017-02-15T15:14:10.069Z,930.72
2017-02-15T15:15:24.827Z,930.77
2017-02-15T15:16:39.513Z,930.76
2017-02-15T15:17:53.438Z,930.76
2017-02-15T15:19:08.129Z,930.75
2017-02-15T15:20:20.843Z,930.75
2017-02-15T15:21:35.584Z,930.76
2017-02-15T15:22:50.162Z,930.76
2017-02-15T15:24:04.725Z,930.75
2017-02-15T15:25:18.699Z,930.75
2017-02-15T15:26:33.336Z,930.75
2017-02-15T15:27:48.389Z,930.74